Strona główna
METAR-TAF:

METAR-TAF

Lotnisko :

Port lotniczy Buri Ram

Buri Ram, Tajlandia

Szerokość geograficzna: 15-13-46N, Długość geograficzna: 103-15-04E, wysokość: 180 m

Aktualna obserwacja pogody

Raport powstał 6 godziny i 15 minut temu, godzina 13:00 UTC
Wiatr 4 kt od południowy zachód
Temperatura 30°C
Wilgotność 66%
Ciśnienie 1012 hPa
Widzialność: 8000 m
Mało chmury na wysokości 4500 ft

METAR: VTUO 111300Z 23004KT 8000 FEW045 30/23 Q1012 NOSIG

czas: 02:15 (19:15 UTC)

Prognoza

Raport powstał 2 godziny i 15 minut temu, godzina 17:00 UTC
Prognoza ważna od 11 godzina 18 UTC do 12 godzina 18 UTC
Wiatr 5 kt od wschodnio-południowy wschód
Widzialność: 9000 m
Mało chmury na wysokości 3000 ft

TAF: VTUO 111700Z 1118/1218 12005KT 9000 FEW030

Obserwacja i prognoza pogody dla ponad 4000 lotnisk (raport METAR i TAF).

Dostępne stacje oznaczono żółtymi i czerwonymi punktami na mapie.

Najedź kursorem aby zobaczyć nazwę stacji.

Kliknij aby zobaczyć obserwacje i prognozy pogody.

Aby zmienić mapę: kliknij na zielony przycisk z czarnym krzyżykiem, aby powiększyć; na zielony przycisk z myślnikiem, aby pomniejszyć; na zielone strzałki, aby przejść do map sąsiednich.


METAR-TAF: